createdAt,value
2023-12-03T00:00:16.669Z,-2.07
2023-12-03T00:01:50.888Z,-2.12
2023-12-03T00:03:24.668Z,-2.11
2023-12-03T00:05:00.053Z,-2.26
2023-12-03T00:06:33.153Z,-2.29
2023-12-03T00:08:07.838Z,-2.26
2023-12-03T00:09:41.027Z,-2.12
2023-12-03T00:11:15.572Z,-2.12
2023-12-03T00:12:48.679Z,-2.14
2023-12-03T00:14:24.627Z,-2.17
2023-12-03T00:15:57.638Z,-2.24
2023-12-03T00:17:32.154Z,-2.22
2023-12-03T00:19:05.417Z,-2.20
2023-12-03T00:20:39.500Z,-2.14
2023-12-03T00:22:12.563Z,-2.11
2023-12-03T00:23:47.199Z,-1.99
2023-12-03T00:25:20.281Z,-2.07
2023-12-03T00:26:54.211Z,-2.17
2023-12-03T00:28:27.203Z,-2.15
2023-12-03T00:30:03.224Z,-2.12
2023-12-03T00:31:36.174Z,-2.03
2023-12-03T00:33:10.209Z,-2.03
2023-12-03T00:34:43.304Z,-1.96
2023-12-03T00:36:17.831Z,-2.07
2023-12-03T00:37:50.885Z,-2.18
2023-12-03T00:39:25.392Z,-2.12
2023-12-03T00:40:59.040Z,-2.24
2023-12-03T00:42:33.632Z,-2.13
2023-12-03T00:44:07.604Z,-2.31
2023-12-03T00:45:42.206Z,-2.25
2023-12-03T00:47:17.164Z,-2.11
2023-12-03T00:48:50.985Z,-2.11
2023-12-03T00:50:25.132Z,-2.21
2023-12-03T00:51:59.077Z,-2.10
2023-12-03T00:53:33.569Z,-2.02
2023-12-03T00:55:06.956Z,-1.94
2023-12-03T00:56:40.925Z,-1.95
2023-12-03T00:58:13.845Z,-1.91
2023-12-03T00:59:48.351Z,-1.97
2023-12-03T01:01:23.063Z,-1.85
2023-12-03T01:02:57.873Z,-1.93
2023-12-03T01:04:30.950Z,-1.87
2023-12-03T01:06:05.604Z,-1.94
2023-12-03T01:07:38.597Z,-1.90
2023-12-03T01:09:12.779Z,-1.87
2023-12-03T01:10:46.038Z,-2.15
2023-12-03T01:12:20.559Z,-2.07
2023-12-03T01:13:53.597Z,-1.98
2023-12-03T01:15:28.021Z,-1.87
2023-12-03T01:17:03.333Z,-1.84
2023-12-03T01:18:37.778Z,-1.95
2023-12-03T01:20:12.002Z,-2.00
2023-12-03T01:21:46.018Z,-2.14
2023-12-03T01:23:19.088Z,-1.99
2023-12-03T01:24:53.519Z,-1.97
2023-12-03T01:26:26.454Z,-1.86
2023-12-03T01:28:00.611Z,-1.88
2023-12-03T01:29:33.832Z,-2.08
2023-12-03T01:31:09.045Z,-1.90
2023-12-03T01:32:44.539Z,-2.01
2023-12-03T01:34:17.634Z,-2.03
2023-12-03T01:35:51.668Z,-1.82
2023-12-03T01:37:26.172Z,-1.76
2023-12-03T01:38:59.117Z,-1.67
2023-12-03T01:40:33.051Z,-1.98
2023-12-03T01:42:06.563Z,-1.76
2023-12-03T01:43:49.290Z,-1.83
2023-12-03T01:45:22.292Z,-2.03
2023-12-03T01:46:59.424Z,-1.78
2023-12-03T01:48:34.341Z,-1.68
2023-12-03T01:50:12.919Z,-1.86
2023-12-03T01:51:47.128Z,-1.85
2023-12-03T01:53:21.385Z,-1.75
2023-12-03T01:54:56.042Z,-1.73
2023-12-03T01:56:30.541Z,-1.77
2023-12-03T01:58:03.761Z,-1.72
2023-12-03T01:59:38.121Z,-1.82
2023-12-03T02:01:11.330Z,-1.79
2023-12-03T02:02:45.860Z,-1.86
2023-12-03T02:04:21.208Z,-1.76
2023-12-03T02:06:03.181Z,-1.74
2023-12-03T02:07:37.342Z,-1.81
2023-12-03T02:09:10.813Z,-1.89
2023-12-03T02:10:45.132Z,-1.76
2023-12-03T02:12:19.681Z,-1.69
2023-12-03T02:13:53.696Z,-1.77
2023-12-03T02:15:27.218Z,-1.83
2023-12-03T02:17:01.279Z,-1.83
2023-12-03T02:18:34.742Z,-1.75
2023-12-03T02:20:11.565Z,-1.81
2023-12-03T02:21:45.017Z,-1.75
2023-12-03T02:23:20.777Z,-1.85
2023-12-03T02:24:54.707Z,-1.92
2023-12-03T02:26:27.657Z,-1.90
2023-12-03T02:28:02.224Z,-1.87
2023-12-03T02:29:36.281Z,-1.90
2023-12-03T02:31:09.340Z,-1.86
2023-12-03T02:32:43.360Z,-1.79
2023-12-03T02:34:18.098Z,-1.90
2023-12-03T02:35:51.095Z,-1.85
2023-12-03T02:37:25.041Z,-1.93
2023-12-03T02:38:59.853Z,-1.95
2023-12-03T02:40:34.823Z,-1.99
2023-12-03T02:42:07.764Z,-2.02
2023-12-03T02:43:41.839Z,-1.87
2023-12-03T02:45:15.363Z,-1.88
2023-12-03T02:46:49.324Z,-2.00
2023-12-03T02:48:22.457Z,-1.81
2023-12-03T02:49:56.976Z,-1.95
2023-12-03T02:51:31.462Z,-1.91
2023-12-03T02:53:04.551Z,-1.86
2023-12-03T02:54:41.485Z,-2.05
2023-12-03T02:56:14.654Z,-2.14
2023-12-03T02:57:49.217Z,-2.01
2023-12-03T02:59:22.295Z,-2.12
2023-12-03T03:00:56.267Z,-2.08
2023-12-03T03:02:29.249Z,-1.91
2023-12-03T03:04:03.780Z,-1.96
2023-12-03T03:05:36.789Z,-1.91
2023-12-03T03:07:10.760Z,-2.08
2023-12-03T03:08:44.740Z,-2.13
2023-12-03T03:10:19.498Z,-2.14
2023-12-03T03:11:54.400Z,-2.00
2023-12-03T03:13:27.358Z,-2.03
2023-12-03T03:15:01.360Z,-2.10
2023-12-03T03:16:36.094Z,-1.95
2023-12-03T03:18:10.163Z,-2.09
2023-12-03T03:19:44.063Z,-2.09
2023-12-03T03:21:18.126Z,-2.04
2023-12-03T03:22:51.903Z,-2.04
2023-12-03T03:24:25.916Z,-1.90
2023-12-03T03:26:00.329Z,-1.91
2023-12-03T03:27:34.296Z,-2.11
2023-12-03T03:29:08.100Z,-2.01
2023-12-03T03:30:42.080Z,-2.04
2023-12-03T03:32:15.311Z,-1.89
2023-12-03T03:33:49.523Z,-1.78
2023-12-03T03:35:23.261Z,-1.79
2023-12-03T03:36:57.611Z,-1.84
2023-12-03T03:38:31.510Z,-1.83
2023-12-03T03:40:05.729Z,-1.77
2023-12-03T03:41:41.529Z,-1.78
2023-12-03T03:43:15.023Z,-1.94
2023-12-03T03:44:49.014Z,-2.00
2023-12-03T03:46:22.001Z,-1.91
2023-12-03T03:47:56.534Z,-1.85
2023-12-03T03:49:29.584Z,-1.91
2023-12-03T03:51:03.608Z,-1.79
2023-12-03T03:52:36.963Z,-2.02
2023-12-03T03:54:10.997Z,-2.00
2023-12-03T03:55:43.754Z,-2.01
2023-12-03T03:57:20.121Z,-1.91
2023-12-03T03:58:52.986Z,-1.93
2023-12-03T04:00:26.765Z,-1.95
2023-12-03T04:01:59.654Z,-2.00
2023-12-03T04:03:34.838Z,-1.86
2023-12-03T04:05:08.822Z,-1.89
2023-12-03T04:06:45.674Z,-1.83
2023-12-03T04:08:18.557Z,-1.72
2023-12-03T04:09:52.685Z,-1.98
2023-12-03T04:11:26.369Z,-1.85
2023-12-03T04:13:00.489Z,-1.77
2023-12-03T04:14:34.193Z,-1.77
2023-12-03T04:16:08.660Z,-1.85
2023-12-03T04:17:42.791Z,-1.80
2023-12-03T04:19:15.670Z,-1.94
2023-12-03T04:20:49.449Z,-1.85
2023-12-03T04:22:25.163Z,-1.85
2023-12-03T04:23:58.304Z,-1.86
2023-12-03T04:25:32.388Z,-1.97
2023-12-03T04:27:05.568Z,-1.85
2023-12-03T04:28:43.022Z,-1.96
2023-12-03T04:30:15.969Z,-2.12
2023-12-03T04:31:50.251Z,-2.02
2023-12-03T04:33:23.035Z,-2.06
2023-12-03T04:34:57.158Z,-1.93
2023-12-03T04:36:30.931Z,-2.07
2023-12-03T04:38:04.323Z,-2.01
2023-12-03T04:39:38.295Z,-2.13
2023-12-03T04:41:11.503Z,-1.95
2023-12-03T04:42:45.952Z,-2.00
2023-12-03T04:44:20.135Z,-2.17
2023-12-03T04:45:53.950Z,-2.20
2023-12-03T04:47:26.725Z,-2.19
2023-12-03T04:49:00.935Z,-2.08
2023-12-03T04:50:33.712Z,-2.15
2023-12-03T04:52:07.688Z,-2.13
2023-12-03T04:53:40.443Z,-2.14
2023-12-03T04:55:14.724Z,-2.07
2023-12-03T04:56:47.476Z,-2.13
2023-12-03T04:58:21.525Z,-2.24
2023-12-03T04:59:56.739Z,-2.35
2023-12-03T05:01:29.904Z,-2.29
2023-12-03T05:03:03.657Z,-2.31
2023-12-03T05:04:36.569Z,-2.33
2023-12-03T05:06:10.771Z,-2.43
2023-12-03T05:07:43.795Z,-2.51
2023-12-03T05:09:17.739Z,-2.54
2023-12-03T05:10:51.529Z,-2.55
2023-12-03T05:12:24.330Z,-2.55
2023-12-03T05:13:58.444Z,-2.45
2023-12-03T05:15:32.528Z,-2.50
2023-12-03T05:17:06.681Z,-2.57
2023-12-03T05:18:42.519Z,-2.68
2023-12-03T05:20:15.868Z,-2.67
2023-12-03T05:21:49.682Z,-3.00
2023-12-03T05:23:22.406Z,-2.71
2023-12-03T05:24:56.143Z,-2.64
2023-12-03T05:26:30.172Z,-2.52
2023-12-03T05:28:02.925Z,-2.69
2023-12-03T05:29:36.702Z,-2.59
2023-12-03T05:31:10.942Z,-2.45
2023-12-03T05:32:45.039Z,-2.57
2023-12-03T05:34:17.877Z,-2.39
2023-12-03T05:35:52.278Z,-2.44
2023-12-03T05:37:29.940Z,-2.30
2023-12-03T05:39:05.972Z,-2.30
2023-12-03T05:40:39.089Z,-2.35
2023-12-03T05:42:14.509Z,-2.56
2023-12-03T05:43:48.939Z,-2.46
2023-12-03T05:45:22.737Z,-2.54
2023-12-03T05:46:58.284Z,-2.58
2023-12-03T05:48:32.436Z,-2.49
2023-12-03T05:50:08.462Z,-2.52
2023-12-03T05:51:45.351Z,-2.58
2023-12-03T05:53:20.054Z,-2.34
2023-12-03T05:54:53.829Z,-2.38
2023-12-03T05:56:28.472Z,-2.47
2023-12-03T05:58:02.200Z,-2.44
2023-12-03T05:59:36.781Z,-2.41
2023-12-03T06:01:11.248Z,-2.37
2023-12-03T06:02:46.409Z,-2.42
2023-12-03T06:04:21.208Z,-2.30
2023-12-03T06:05:55.397Z,-2.17
2023-12-03T06:07:28.826Z,-2.34
2023-12-03T06:09:03.397Z,-2.34
2023-12-03T06:10:36.941Z,-2.27
2023-12-03T06:12:11.440Z,-2.20
2023-12-03T06:13:44.945Z,-2.10
2023-12-03T06:15:19.442Z,-2.12
2023-12-03T06:16:53.363Z,-2.12
2023-12-03T06:18:30.993Z,-2.22
2023-12-03T06:20:05.937Z,-2.10
2023-12-03T06:21:39.797Z,-2.07
2023-12-03T06:23:17.011Z,-2.01
2023-12-03T06:24:51.888Z,-2.15
2023-12-03T06:26:26.749Z,-1.96
2023-12-03T06:28:00.128Z,-1.79
2023-12-03T06:29:34.490Z,-1.94
2023-12-03T06:31:08.269Z,-1.74
2023-12-03T06:32:42.629Z,-1.82
2023-12-03T06:34:18.592Z,-1.83
2023-12-03T06:35:52.441Z,-1.79
2023-12-03T06:37:27.134Z,-1.73
2023-12-03T06:39:00.280Z,-1.73
2023-12-03T06:40:34.701Z,-1.72
2023-12-03T06:42:08.160Z,-1.65
2023-12-03T06:43:42.852Z,-1.52
2023-12-03T06:45:17.756Z,-1.78
2023-12-03T06:46:51.088Z,-1.56
2023-12-03T06:48:25.700Z,-1.67
2023-12-03T06:50:00.421Z,-1.70
2023-12-03T06:51:35.151Z,-1.63
2023-12-03T06:53:08.636Z,-1.67
2023-12-03T06:54:44.220Z,-1.68
2023-12-03T06:56:17.437Z,-1.59
2023-12-03T06:57:52.523Z,-1.67
2023-12-03T06:59:26.834Z,-1.60
2023-12-03T07:01:00.385Z,-1.59
2023-12-03T07:02:34.995Z,-1.64
2023-12-03T07:04:09.498Z,-1.51
2023-12-03T07:05:44.492Z,-1.60
2023-12-03T07:07:18.766Z,-1.63
2023-12-03T07:08:52.560Z,-1.56
2023-12-03T07:10:26.770Z,-1.61
2023-12-03T07:12:00.527Z,-1.72
2023-12-03T07:13:34.650Z,-1.56
2023-12-03T07:15:08.913Z,-1.69
2023-12-03T07:16:43.663Z,-1.49
2023-12-03T07:18:17.262Z,-1.52
2023-12-03T07:19:52.032Z,-1.38
2023-12-03T07:21:27.925Z,-1.55
2023-12-03T07:23:01.299Z,-1.52
2023-12-03T07:24:36.097Z,-1.69
2023-12-03T07:26:12.552Z,-1.54
2023-12-03T07:27:48.250Z,-1.46
2023-12-03T07:29:21.966Z,-1.68
2023-12-03T07:30:56.838Z,-1.69
2023-12-03T07:32:30.227Z,-1.72
2023-12-03T07:34:05.343Z,-1.61
2023-12-03T07:35:39.245Z,-1.57
2023-12-03T07:37:15.241Z,-1.67
2023-12-03T07:38:48.774Z,-1.39
2023-12-03T07:40:23.707Z,-1.34
2023-12-03T07:41:57.468Z,-1.16
2023-12-03T07:43:32.202Z,-1.18
2023-12-03T07:45:06.776Z,-1.32
2023-12-03T07:46:41.546Z,-1.35
2023-12-03T07:48:15.159Z,-1.31
2023-12-03T07:49:49.967Z,-1.40
2023-12-03T07:51:23.651Z,-1.48
2023-12-03T07:53:00.317Z,-1.49
2023-12-03T07:54:33.957Z,-1.39
2023-12-03T07:56:10.001Z,-1.55
2023-12-03T07:57:43.461Z,-1.42
2023-12-03T07:59:17.803Z,-1.34
2023-12-03T08:00:51.236Z,-1.25
2023-12-03T08:02:25.924Z,-1.22
2023-12-03T08:03:59.466Z,-1.00
2023-12-03T08:05:34.305Z,-1.08
2023-12-03T08:07:08.618Z,-1.07
2023-12-03T08:08:44.816Z,-0.87
2023-12-03T08:10:18.042Z,-0.88
2023-12-03T08:11:52.405Z,-0.68
2023-12-03T08:13:28.714Z,-0.70
2023-12-03T08:15:03.001Z,-0.64
2023-12-03T08:16:36.332Z,-0.68
2023-12-03T08:18:11.067Z,-0.67
2023-12-03T08:19:44.781Z,-0.90
2023-12-03T08:21:19.886Z,-0.95
2023-12-03T08:22:53.323Z,-0.85
2023-12-03T08:24:29.537Z,-0.86
2023-12-03T08:26:07.912Z,-1.17
2023-12-03T08:27:41.466Z,-1.20
2023-12-03T08:29:16.330Z,-1.22
2023-12-03T08:30:50.077Z,-0.99
2023-12-03T08:32:24.622Z,-1.07
2023-12-03T08:33:58.673Z,-1.10
2023-12-03T08:35:34.041Z,-1.03
2023-12-03T08:37:07.810Z,-0.88
2023-12-03T08:38:44.697Z,-0.77
2023-12-03T08:40:21.644Z,-0.89
2023-12-03T08:41:55.510Z,-1.11
2023-12-03T08:43:30.672Z,-1.00
2023-12-03T08:45:05.505Z,-0.82
2023-12-03T08:46:40.303Z,-1.03
2023-12-03T08:48:13.821Z,-1.23
2023-12-03T08:49:48.313Z,-1.14
2023-12-03T08:51:22.044Z,-1.04
2023-12-03T08:52:57.024Z,-0.96
2023-12-03T08:54:32.286Z,-0.92
2023-12-03T08:56:12.496Z,-1.00
2023-12-03T08:57:47.348Z,-1.00
2023-12-03T08:59:24.419Z,-0.86
2023-12-03T09:00:59.159Z,-0.74
2023-12-03T09:02:33.418Z,-0.57
2023-12-03T09:04:08.553Z,-0.45
2023-12-03T09:05:42.498Z,-0.40
2023-12-03T09:07:17.781Z,-0.49
2023-12-03T09:08:51.514Z,-0.33
2023-12-03T09:10:26.315Z,-0.64
2023-12-03T09:12:01.506Z,-0.74
2023-12-03T09:13:36.966Z,-0.71
2023-12-03T09:15:11.692Z,-0.70
2023-12-03T09:16:46.690Z,-0.98
2023-12-03T09:18:20.570Z,-1.07
2023-12-03T09:19:55.482Z,-0.87
2023-12-03T09:21:28.777Z,-0.76
2023-12-03T09:23:03.824Z,-0.65
2023-12-03T09:24:37.940Z,-0.80
2023-12-03T09:26:12.624Z,-0.99
2023-12-03T09:27:47.318Z,-0.94
2023-12-03T09:29:22.610Z,-0.94
2023-12-03T09:30:56.424Z,-0.80
2023-12-03T09:32:30.963Z,-0.85
2023-12-03T09:34:05.045Z,-0.87
2023-12-03T09:35:40.273Z,-0.82
2023-12-03T09:37:14.918Z,-0.75
2023-12-03T09:38:49.918Z,-0.78
2023-12-03T09:40:24.106Z,-0.53
2023-12-03T09:42:03.611Z,-0.42
2023-12-03T09:43:42.325Z,-0.15
2023-12-03T09:45:20.955Z,-0.46
2023-12-03T09:46:55.756Z,-0.41
2023-12-03T09:48:35.862Z,0.00
2023-12-03T09:50:13.686Z,-0.26
2023-12-03T09:51:49.246Z,-0.37
2023-12-03T09:53:25.671Z,-0.31
2023-12-03T09:55:00.445Z,-0.01
2023-12-03T09:56:36.706Z,0.36
2023-12-03T09:58:12.052Z,-0.22
2023-12-03T09:59:49.513Z,-0.05
2023-12-03T10:01:25.220Z,0.03
2023-12-03T10:03:00.464Z,0.31
2023-12-03T10:04:34.412Z,0.25
2023-12-03T10:06:10.918Z,0.55
2023-12-03T10:07:49.573Z,-0.13
2023-12-03T10:09:25.400Z,0.01
2023-12-03T10:11:01.406Z,0.14
2023-12-03T10:12:43.374Z,0.13
2023-12-03T10:14:20.484Z,0.09
2023-12-03T10:15:55.547Z,0.12
2023-12-03T10:17:30.994Z,-0.16
2023-12-03T10:19:04.977Z,0.05
2023-12-03T10:20:42.377Z,-0.14
2023-12-03T10:22:16.861Z,-0.08
2023-12-03T10:24:02.563Z,-0.02
2023-12-03T10:25:38.395Z,-0.10
2023-12-03T10:27:13.161Z,0.09
2023-12-03T10:28:48.460Z,0.31
2023-12-03T10:30:22.568Z,0.44
2023-12-03T10:31:59.626Z,0.66
2023-12-03T10:33:33.423Z,0.53
2023-12-03T10:35:10.884Z,0.48
2023-12-03T10:36:45.652Z,0.76
2023-12-03T10:38:20.069Z,0.76
2023-12-03T10:39:54.955Z,0.37
2023-12-03T10:41:30.655Z,0.21
2023-12-03T10:43:04.725Z,0.21
2023-12-03T10:44:41.587Z,0.45
2023-12-03T10:46:16.603Z,0.55
2023-12-03T10:47:55.444Z,0.41
2023-12-03T10:49:33.277Z,0.65
2023-12-03T10:51:10.750Z,0.71
2023-12-03T10:52:44.707Z,0.80
2023-12-03T10:54:19.805Z,0.53
2023-12-03T10:55:55.087Z,0.64
2023-12-03T10:57:31.810Z,0.54
2023-12-03T10:59:11.778Z,0.43
2023-12-03T11:00:52.677Z,0.68
2023-12-03T11:02:30.892Z,0.78
2023-12-03T11:04:14.323Z,0.65
2023-12-03T11:05:52.449Z,0.27
2023-12-03T11:07:27.211Z,0.72
2023-12-03T11:09:00.959Z,1.04
2023-12-03T11:10:36.423Z,1.03
2023-12-03T11:12:10.025Z,1.03
2023-12-03T11:13:47.435Z,1.01
2023-12-03T11:15:22.908Z,1.21
2023-12-03T11:17:09.817Z,0.98
2023-12-03T11:18:55.997Z,0.94
2023-12-03T11:20:35.367Z,0.77
2023-12-03T11:22:21.935Z,0.51
2023-12-03T11:24:17.772Z,0.65
2023-12-03T11:25:57.552Z,0.59
2023-12-03T11:27:31.332Z,0.64
2023-12-03T11:29:06.831Z,0.79
2023-12-03T11:30:42.218Z,0.91
2023-12-03T11:32:17.249Z,1.01
2023-12-03T11:33:57.995Z,1.23
2023-12-03T11:35:34.593Z,1.21
2023-12-03T11:37:11.007Z,1.21
2023-12-03T11:38:46.065Z,1.14
2023-12-03T11:40:35.410Z,0.78
2023-12-03T11:42:13.662Z,1.07
2023-12-03T11:43:50.091Z,0.85
2023-12-03T11:45:27.300Z,0.70
2023-12-03T11:47:08.413Z,0.94
2023-12-03T11:48:44.197Z,1.00
2023-12-03T11:50:19.010Z,0.84
2023-12-03T11:51:55.291Z,0.83
2023-12-03T11:53:41.025Z,0.52
2023-12-03T11:55:20.969Z,0.97
2023-12-03T11:56:56.380Z,0.98
2023-12-03T11:58:31.142Z,1.10
2023-12-03T12:00:09.363Z,0.72
2023-12-03T12:01:43.807Z,1.15
2023-12-03T12:03:19.148Z,0.99
2023-12-03T12:04:53.086Z,0.81
2023-12-03T12:06:29.406Z,0.52
2023-12-03T12:08:07.211Z,0.76
2023-12-03T12:09:40.870Z,0.99
2023-12-03T12:11:15.389Z,0.98
2023-12-03T12:12:49.885Z,1.02
2023-12-03T12:14:24.948Z,0.82
2023-12-03T12:15:59.133Z,0.72
2023-12-03T12:17:34.462Z,1.03
2023-12-03T12:19:09.869Z,0.92
2023-12-03T12:20:44.401Z,0.89
2023-12-03T12:22:20.121Z,0.74
2023-12-03T12:23:56.228Z,0.78
2023-12-03T12:25:34.221Z,0.95
2023-12-03T12:27:08.273Z,1.11
2023-12-03T12:28:44.442Z,1.12
2023-12-03T12:30:30.944Z,1.27
2023-12-03T12:32:10.658Z,1.20
2023-12-03T12:33:44.830Z,1.38
2023-12-03T12:35:19.989Z,1.47
2023-12-03T12:37:04.340Z,1.20
2023-12-03T12:38:46.445Z,1.14
2023-12-03T12:40:21.384Z,1.22
2023-12-03T12:41:58.935Z,1.22
2023-12-03T12:43:35.294Z,1.08
2023-12-03T12:45:28.952Z,1.27
2023-12-03T12:47:05.118Z,1.00
2023-12-03T12:48:41.912Z,1.07
2023-12-03T12:50:18.695Z,1.23
2023-12-03T12:51:53.793Z,1.06
2023-12-03T12:53:28.884Z,1.05
2023-12-03T12:55:07.688Z,0.98
2023-12-03T12:56:47.690Z,1.10
2023-12-03T12:58:23.359Z,0.82
2023-12-03T12:59:58.344Z,0.58
2023-12-03T13:01:34.310Z,0.38
2023-12-03T13:03:09.365Z,0.57
2023-12-03T13:04:43.627Z,0.68
2023-12-03T13:06:18.874Z,0.50
2023-12-03T13:07:53.826Z,0.54
2023-12-03T13:09:28.873Z,0.73
2023-12-03T13:11:04.649Z,0.74
2023-12-03T13:12:41.969Z,0.99
2023-12-03T13:14:15.245Z,0.90
2023-12-03T13:15:50.666Z,0.72
2023-12-03T13:17:27.952Z,0.69
2023-12-03T13:19:01.645Z,0.58
2023-12-03T13:20:36.702Z,0.33
2023-12-03T13:22:10.652Z,0.37
2023-12-03T13:23:46.278Z,0.29
2023-12-03T13:25:21.596Z,0.21
2023-12-03T13:26:56.934Z,0.48
2023-12-03T13:28:31.851Z,0.71
2023-12-03T13:30:09.177Z,0.76
2023-12-03T13:31:43.253Z,0.85
2023-12-03T13:33:18.585Z,0.96
2023-12-03T13:34:53.216Z,0.84
2023-12-03T13:36:29.031Z,0.77
2023-12-03T13:38:04.091Z,0.81
2023-12-03T13:39:39.234Z,0.95
2023-12-03T13:41:13.109Z,0.64
2023-12-03T13:42:54.264Z,0.77
2023-12-03T13:44:29.286Z,0.84
2023-12-03T13:46:04.654Z,0.75
2023-12-03T13:47:39.105Z,0.86
2023-12-03T13:49:14.071Z,0.94
2023-12-03T13:50:48.667Z,0.74
2023-12-03T13:52:22.432Z,0.83
2023-12-03T13:53:57.269Z,0.85
2023-12-03T13:55:30.857Z,0.73
2023-12-03T13:57:05.786Z,0.65
2023-12-03T13:58:39.548Z,0.56
2023-12-03T14:00:17.736Z,0.54
2023-12-03T14:01:53.472Z,0.62
2023-12-03T14:03:27.467Z,0.59
2023-12-03T14:05:12.376Z,0.56
2023-12-03T14:06:57.402Z,0.53
2023-12-03T14:08:31.271Z,0.75
2023-12-03T14:10:07.931Z,0.64
2023-12-03T14:11:41.754Z,0.76
2023-12-03T14:13:17.161Z,0.93
2023-12-03T14:14:51.470Z,0.87
2023-12-03T14:16:27.510Z,0.75
2023-12-03T14:18:01.179Z,0.68
2023-12-03T14:19:36.504Z,0.69
2023-12-03T14:21:10.651Z,0.58
2023-12-03T14:22:45.303Z,0.63
2023-12-03T14:24:19.837Z,0.71
2023-12-03T14:25:55.284Z,0.39
2023-12-03T14:27:29.361Z,0.13
2023-12-03T14:29:04.863Z,-0.09
2023-12-03T14:30:38.707Z,-0.24
2023-12-03T14:32:15.286Z,-0.22
2023-12-03T14:33:49.806Z,-0.23
2023-12-03T14:35:24.596Z,-0.40
2023-12-03T14:36:58.633Z,-0.36
2023-12-03T14:38:34.481Z,-0.44
2023-12-03T14:40:15.078Z,-0.54
2023-12-03T14:41:49.069Z,-0.51
2023-12-03T14:43:24.044Z,-0.64
2023-12-03T14:44:58.720Z,-0.82
2023-12-03T14:46:34.684Z,-0.86
2023-12-03T14:48:09.670Z,-0.85
2023-12-03T14:49:44.785Z,-0.98
2023-12-03T14:51:19.790Z,-0.94
2023-12-03T14:52:54.756Z,-1.09
2023-12-03T14:54:28.424Z,-1.05
2023-12-03T14:56:03.294Z,-1.17
2023-12-03T14:57:38.545Z,-1.33
2023-12-03T14:59:12.184Z,-1.24
2023-12-03T15:00:47.025Z,-1.34
2023-12-03T15:02:20.963Z,-1.35
2023-12-03T15:03:58.101Z,-1.34
2023-12-03T15:05:32.074Z,-1.33
2023-12-03T15:07:07.221Z,-1.35
2023-12-03T15:08:40.743Z,-1.41
2023-12-03T15:10:18.019Z,-1.39
2023-12-03T15:11:52.028Z,-1.22
2023-12-03T15:13:27.091Z,-1.32
2023-12-03T15:15:01.533Z,-1.41
2023-12-03T15:16:36.925Z,-1.33
2023-12-03T15:18:10.618Z,-1.36
2023-12-03T15:19:46.687Z,-1.30
2023-12-03T15:21:21.720Z,-1.24
2023-12-03T15:22:57.033Z,-1.13
2023-12-03T15:24:31.658Z,-1.21
2023-12-03T15:26:07.097Z,-1.19
2023-12-03T15:27:42.395Z,-1.07
2023-12-03T15:29:16.696Z,-1.06
2023-12-03T15:30:51.665Z,-1.04
2023-12-03T15:32:26.570Z,-1.01
2023-12-03T15:34:02.774Z,-1.03
2023-12-03T15:35:38.941Z,-1.13
2023-12-03T15:37:14.510Z,-1.19
2023-12-03T15:38:49.343Z,-1.28
2023-12-03T15:40:24.671Z,-1.27
2023-12-03T15:41:58.822Z,-1.24
2023-12-03T15:43:40.817Z,-1.20
2023-12-03T15:45:19.854Z,-1.15
2023-12-03T15:46:54.949Z,-1.14
2023-12-03T15:48:31.581Z,-1.11
2023-12-03T15:50:06.678Z,-1.02
2023-12-03T15:51:43.411Z,-1.03
2023-12-03T15:53:17.524Z,-1.20
2023-12-03T15:54:53.122Z,-1.27
2023-12-03T15:56:27.511Z,-1.33
2023-12-03T15:58:02.931Z,-1.33
2023-12-03T15:59:38.160Z,-1.26
2023-12-03T16:01:13.391Z,-1.20
2023-12-03T16:02:48.791Z,-1.18
2023-12-03T16:04:23.341Z,-1.15
2023-12-03T16:05:58.412Z,-1.10
2023-12-03T16:07:34.001Z,-1.02
2023-12-03T16:09:09.829Z,-0.94
2023-12-03T16:10:43.953Z,-0.91
2023-12-03T16:12:19.688Z,-0.90
2023-12-03T16:13:54.480Z,-1.03
2023-12-03T16:15:29.148Z,-1.05
2023-12-03T16:17:06.073Z,-1.19
2023-12-03T16:18:41.597Z,-1.07
2023-12-03T16:20:16.268Z,-1.11
2023-12-03T16:21:52.373Z,-1.09
2023-12-03T16:23:27.933Z,-1.00
2023-12-03T16:25:03.630Z,-1.08
2023-12-03T16:26:38.029Z,-0.97
2023-12-03T16:28:13.201Z,-0.97
2023-12-03T16:29:47.270Z,-1.01
2023-12-03T16:31:22.604Z,-0.98
2023-12-03T16:32:57.142Z,-0.94
2023-12-03T16:34:32.176Z,-0.89
2023-12-03T16:36:08.032Z,-0.80
2023-12-03T16:37:41.730Z,-0.81
2023-12-03T16:39:17.971Z,-0.83
2023-12-03T16:40:52.965Z,-1.05
2023-12-03T16:42:29.260Z,-1.09
2023-12-03T16:44:06.378Z,-1.12
2023-12-03T16:45:41.122Z,-1.07
2023-12-03T16:47:14.387Z,-1.13
2023-12-03T16:48:51.029Z,-1.05
2023-12-03T16:50:25.102Z,-1.22
2023-12-03T16:52:00.050Z,-1.16
2023-12-03T16:53:33.745Z,-1.18
2023-12-03T16:55:11.061Z,-1.22
2023-12-03T16:56:45.204Z,-1.51
2023-12-03T16:58:20.675Z,-1.55
2023-12-03T16:59:54.119Z,-1.61
2023-12-03T17:01:28.534Z,-1.61
2023-12-03T17:03:02.639Z,-1.69
2023-12-03T17:04:39.586Z,-1.80
2023-12-03T17:06:13.481Z,-1.85
2023-12-03T17:07:48.154Z,-1.95
2023-12-03T17:09:22.042Z,-1.98
2023-12-03T17:10:59.033Z,-1.98
2023-12-03T17:12:44.091Z,-2.16
2023-12-03T17:14:22.776Z,-2.14
2023-12-03T17:15:56.459Z,-2.25
2023-12-03T17:17:31.231Z,-2.27
2023-12-03T17:19:04.814Z,-2.29
2023-12-03T17:20:39.937Z,-2.26
2023-12-03T17:22:13.718Z,-2.18
2023-12-03T17:23:48.653Z,-2.16
2023-12-03T17:25:21.877Z,-2.18
2023-12-03T17:26:59.421Z,-2.09
2023-12-03T17:28:32.895Z,-2.01
2023-12-03T17:30:09.692Z,-2.04
2023-12-03T17:31:44.038Z,-2.09
2023-12-03T17:33:20.276Z,-2.15
2023-12-03T17:34:54.416Z,-2.23
2023-12-03T17:36:29.395Z,-2.13
2023-12-03T17:38:02.888Z,-2.23
2023-12-03T17:39:39.505Z,-2.22
2023-12-03T17:41:12.707Z,-2.27
2023-12-03T17:42:48.710Z,-2.28
2023-12-03T17:44:23.574Z,-2.33
2023-12-03T17:45:58.051Z,-2.36
2023-12-03T17:47:33.782Z,-2.49
2023-12-03T17:49:08.055Z,-2.48
2023-12-03T17:50:42.819Z,-2.61
2023-12-03T17:52:16.536Z,-2.71
2023-12-03T17:53:51.355Z,-2.78
2023-12-03T17:55:24.737Z,-2.90
2023-12-03T17:56:59.711Z,-3.12
2023-12-03T17:58:34.441Z,-3.13
2023-12-03T18:00:09.891Z,-3.25
2023-12-03T18:01:43.669Z,-3.24
2023-12-03T18:03:19.242Z,-3.27
2023-12-03T18:04:52.539Z,-3.31
2023-12-03T18:06:27.690Z,-3.30
2023-12-03T18:08:01.977Z,-3.38
2023-12-03T18:09:37.908Z,-3.50
2023-12-03T18:11:11.719Z,-3.52
2023-12-03T18:12:46.758Z,-3.51
2023-12-03T18:14:24.303Z,-3.60
2023-12-03T18:15:58.118Z,-3.58
2023-12-03T18:17:32.680Z,-3.61
2023-12-03T18:19:07.738Z,-3.56
2023-12-03T18:20:43.110Z,-3.60
2023-12-03T18:22:17.398Z,-3.57
2023-12-03T18:23:51.272Z,-3.56
2023-12-03T18:25:25.528Z,-3.49
2023-12-03T18:26:59.401Z,-3.58
2023-12-03T18:28:34.273Z,-3.60
2023-12-03T18:30:10.493Z,-3.69
2023-12-03T18:31:46.713Z,-3.61
2023-12-03T18:33:21.237Z,-3.66
2023-12-03T18:34:55.649Z,-3.65
2023-12-03T18:36:29.174Z,-3.61
2023-12-03T18:38:03.985Z,-3.65
2023-12-03T18:39:38.508Z,-3.51
2023-12-03T18:41:13.190Z,-3.45
2023-12-03T18:42:46.487Z,-3.36
2023-12-03T18:44:22.195Z,-3.38
2023-12-03T18:45:59.647Z,-3.42
2023-12-03T18:47:34.403Z,-3.35
2023-12-03T18:49:09.140Z,-3.47
2023-12-03T18:50:42.283Z,-3.43
2023-12-03T18:52:17.246Z,-3.46
2023-12-03T18:53:50.389Z,-3.48
2023-12-03T18:55:24.607Z,-3.48
2023-12-03T18:56:58.302Z,-3.54
2023-12-03T18:58:33.169Z,-3.47
2023-12-03T19:00:07.732Z,-3.38
2023-12-03T19:01:43.894Z,-3.41
2023-12-03T19:03:17.974Z,-3.42
2023-12-03T19:04:53.233Z,-3.37
2023-12-03T19:06:26.775Z,-3.34
2023-12-03T19:08:01.652Z,-3.36
2023-12-03T19:09:36.634Z,-3.39
2023-12-03T19:11:11.945Z,-3.31
2023-12-03T19:12:45.232Z,-3.31
2023-12-03T19:14:25.463Z,-3.34
2023-12-03T19:15:59.106Z,-3.30
2023-12-03T19:17:35.909Z,-3.26
2023-12-03T19:19:10.481Z,-3.27
2023-12-03T19:20:44.055Z,-3.30
2023-12-03T19:22:19.227Z,-3.26
2023-12-03T19:23:55.434Z,-3.26
2023-12-03T19:25:29.022Z,-3.25
2023-12-03T19:27:03.476Z,-3.27
2023-12-03T19:28:37.206Z,-3.26
2023-12-03T19:30:14.049Z,-3.26
2023-12-03T19:31:49.837Z,-3.26
2023-12-03T19:33:26.081Z,-3.26
2023-12-03T19:35:01.088Z,-3.27
2023-12-03T19:36:36.655Z,-3.25
2023-12-03T19:38:13.227Z,-3.20
2023-12-03T19:39:46.725Z,-3.12
2023-12-03T19:41:21.271Z,-3.11
2023-12-03T19:42:54.933Z,-3.15
2023-12-03T19:44:29.975Z,-3.17
2023-12-03T19:46:03.165Z,-3.25
2023-12-03T19:47:38.694Z,-3.31
2023-12-03T19:49:14.051Z,-3.36
2023-12-03T19:50:48.529Z,-3.33
2023-12-03T19:52:22.233Z,-3.35
2023-12-03T19:53:56.812Z,-3.29
2023-12-03T19:55:30.807Z,-3.29
2023-12-03T19:57:06.417Z,-3.32
2023-12-03T19:58:39.693Z,-3.32
2023-12-03T20:00:15.819Z,-3.39
2023-12-03T20:01:49.402Z,-3.32
2023-12-03T20:03:24.076Z,-3.30
2023-12-03T20:07:48.680Z,-3.42
2023-12-03T20:12:16.563Z,-3.81
2023-12-03T20:13:51.249Z,-3.81
2023-12-03T20:15:28.755Z,-3.89
2023-12-03T20:17:12.708Z,-3.90
2023-12-03T20:18:45.909Z,-3.97
2023-12-03T20:20:21.041Z,-4.00
2023-12-03T20:21:55.111Z,-4.10
2023-12-03T20:23:29.797Z,-4.12
2023-12-03T20:25:06.583Z,-4.14
2023-12-03T20:26:40.887Z,-4.07
2023-12-03T20:28:16.542Z,-4.23
2023-12-03T20:29:49.825Z,-4.29
2023-12-03T20:31:26.472Z,-4.35
2023-12-03T20:33:01.330Z,-4.32
2023-12-03T20:34:35.757Z,-4.36
2023-12-03T20:36:11.253Z,-4.41
2023-12-03T20:37:45.716Z,-4.39